createdAt,value
2023-09-05T00:00:21.199Z,3.70
2023-09-05T00:02:52.518Z,3.50
2023-09-05T00:05:21.850Z,3.55
2023-09-05T00:07:50.759Z,3.58
2023-09-05T00:10:19.172Z,3.58
2023-09-05T00:12:52.702Z,3.85
2023-09-05T00:15:20.856Z,3.45
2023-09-05T00:17:48.709Z,3.33
2023-09-05T00:20:16.972Z,3.95
2023-09-05T00:22:46.752Z,3.72
2023-09-05T00:25:16.313Z,3.80
2023-09-05T00:27:44.712Z,4.82
2023-09-05T00:30:15.637Z,3.50
2023-09-05T00:32:44.163Z,3.60
2023-09-05T00:35:14.728Z,4.00
2023-09-05T00:37:47.577Z,3.40
2023-09-05T00:40:22.380Z,3.13
2023-09-05T00:42:50.520Z,4.10
2023-09-05T00:45:20.346Z,3.55
2023-09-05T00:47:49.089Z,3.10
2023-09-05T00:50:19.409Z,3.72
2023-09-05T00:52:51.834Z,3.13
2023-09-05T00:55:22.032Z,3.35
2023-09-05T00:57:50.201Z,3.20
2023-09-05T01:00:22.225Z,2.92
2023-09-05T01:02:50.143Z,3.03
2023-09-05T01:05:19.304Z,3.17
2023-09-05T01:08:00.313Z,2.83
2023-09-05T01:10:34.174Z,3.05
2023-09-05T01:13:02.374Z,3.00
2023-09-05T01:15:32.569Z,3.50
2023-09-05T01:18:00.494Z,3.15
2023-09-05T01:20:37.390Z,2.80
2023-09-05T01:23:11.456Z,4.30
2023-09-05T01:25:44.435Z,3.45
2023-09-05T01:28:14.305Z,2.97
2023-09-05T01:30:43.928Z,2.92
2023-09-05T01:33:13.648Z,3.20
2023-09-05T01:35:42.020Z,2.80
2023-09-05T01:38:10.054Z,3.28
2023-09-05T01:40:47.882Z,3.28
2023-09-05T01:43:19.289Z,2.72
2023-09-05T01:45:47.244Z,3.00
2023-09-05T01:48:15.041Z,3.33
2023-09-05T01:50:42.751Z,3.08
2023-09-05T01:53:10.696Z,3.50
2023-09-05T01:55:38.593Z,3.28
2023-09-05T01:58:08.862Z,2.95
2023-09-05T02:00:39.183Z,3.45
2023-09-05T02:03:07.512Z,3.92
2023-09-05T02:05:36.336Z,3.28
2023-09-05T02:08:05.415Z,3.80
2023-09-05T02:10:36.021Z,2.92
2023-09-05T02:13:08.146Z,2.60
2023-09-05T02:15:39.353Z,3.33
2023-09-05T02:18:12.472Z,3.15
2023-09-05T02:20:41.255Z,3.75
2023-09-05T02:23:12.667Z,3.85
2023-09-05T02:26:20.854Z,3.45
2023-09-05T02:28:33.448Z,3.50
2023-09-05T02:31:35.548Z,3.22
2023-09-05T02:34:14.631Z,3.78
2023-09-05T02:36:44.660Z,3.60
2023-09-05T02:39:12.881Z,3.67
2023-09-05T02:41:41.557Z,3.70
2023-09-05T02:44:10.679Z,3.35
2023-09-05T02:46:41.147Z,3.45
2023-09-05T02:49:08.904Z,3.67
2023-09-05T02:51:36.857Z,3.70
2023-09-05T02:54:04.707Z,4.20
2023-09-05T02:56:32.720Z,4.10
2023-09-05T02:59:00.707Z,3.60
2023-09-05T03:01:29.607Z,4.00
2023-09-05T03:04:10.459Z,3.80
2023-09-05T03:06:50.121Z,3.35
2023-09-05T03:09:20.401Z,4.10
2023-09-05T03:11:52.506Z,4.22
2023-09-05T03:14:20.871Z,3.92
2023-09-05T03:16:50.947Z,4.00
2023-09-05T03:19:23.396Z,4.10
2023-09-05T03:21:52.254Z,3.97
2023-09-05T03:24:20.043Z,4.07
2023-09-05T03:26:49.143Z,4.30
2023-09-05T03:29:17.528Z,4.10
2023-09-05T03:31:46.473Z,4.38
2023-09-05T03:34:17.694Z,4.88
2023-09-05T03:36:47.017Z,4.05
2023-09-05T03:39:15.364Z,4.18
2023-09-05T03:41:43.422Z,4.15
2023-09-05T03:44:11.481Z,4.25
2023-09-05T03:46:39.450Z,6.00
2023-09-05T03:49:07.298Z,4.20
2023-09-05T03:51:35.446Z,4.50
2023-09-05T03:54:04.983Z,4.40
2023-09-05T03:56:32.978Z,4.35
2023-09-05T03:59:00.995Z,5.10
2023-09-05T04:01:29.321Z,6.10
2023-09-05T04:03:57.427Z,5.03
2023-09-05T04:06:25.332Z,4.47
2023-09-05T04:08:53.550Z,4.10
2023-09-05T04:11:24.315Z,4.50
2023-09-05T04:13:52.559Z,4.38
2023-09-05T04:19:04.579Z,4.57
2023-09-05T04:21:33.501Z,4.63
2023-09-05T04:24:02.361Z,4.55
2023-09-05T04:26:31.935Z,4.45
2023-09-05T04:29:00.128Z,5.93
2023-09-05T04:31:29.262Z,4.70
2023-09-05T04:33:58.117Z,5.10
2023-09-05T04:36:27.704Z,4.82
2023-09-05T04:38:56.650Z,4.85
2023-09-05T04:41:24.867Z,4.82
2023-09-05T04:43:55.310Z,4.82
2023-09-05T04:46:24.421Z,6.82
2023-09-05T04:48:54.817Z,5.03
2023-09-05T04:51:22.665Z,4.68
2023-09-05T04:53:50.678Z,6.15
2023-09-05T04:56:18.676Z,5.07
2023-09-05T04:58:55.587Z,5.22
2023-09-05T05:01:25.591Z,5.15
2023-09-05T05:03:53.894Z,4.47
2023-09-05T05:06:24.092Z,5.05
2023-09-05T05:08:52.369Z,5.20
2023-09-05T05:11:20.428Z,4.25
2023-09-05T05:13:48.584Z,5.65
2023-09-05T05:16:16.582Z,4.75
2023-09-05T05:18:46.727Z,4.72
2023-09-05T05:21:15.072Z,5.05
2023-09-05T05:23:43.777Z,4.97
2023-09-05T05:26:12.043Z,4.80
2023-09-05T05:28:40.037Z,5.13
2023-09-05T05:31:13.581Z,5.05
2023-09-05T05:33:41.421Z,4.75
2023-09-05T05:36:12.053Z,4.53
2023-09-05T05:38:41.692Z,5.30
2023-09-05T05:41:10.672Z,5.22
2023-09-05T05:43:38.819Z,5.10
2023-09-05T05:46:06.545Z,5.18
2023-09-05T05:48:34.430Z,5.22
2023-09-05T05:51:02.134Z,4.65
2023-09-05T05:53:31.533Z,5.53
2023-09-05T05:55:59.418Z,4.93
2023-09-05T05:58:27.714Z,4.43
2023-09-05T06:00:55.699Z,4.60
2023-09-05T06:03:23.789Z,4.75
2023-09-05T06:05:52.607Z,4.68
2023-09-05T06:08:21.052Z,4.70
2023-09-05T06:10:51.243Z,4.43
2023-09-05T06:13:18.898Z,4.43
2023-09-05T06:15:46.939Z,4.28
2023-09-05T06:18:15.780Z,4.20
2023-09-05T06:20:43.814Z,4.38
2023-09-05T06:23:12.921Z,4.13
2023-09-05T06:25:41.431Z,4.03
2023-09-05T06:28:11.194Z,3.95
2023-09-05T06:30:39.419Z,4.32
2023-09-05T06:33:07.207Z,4.32
2023-09-05T06:35:37.112Z,4.43
2023-09-05T06:38:06.973Z,3.92
2023-09-05T06:40:34.900Z,4.30
2023-09-05T06:43:02.638Z,4.20
2023-09-05T06:45:32.042Z,4.30
2023-09-05T06:48:00.168Z,4.13
2023-09-05T06:50:29.413Z,4.53
2023-09-05T06:52:57.810Z,3.92
2023-09-05T06:55:25.621Z,3.95
2023-09-05T06:57:53.412Z,4.05
2023-09-05T07:00:29.142Z,3.97
2023-09-05T07:02:58.303Z,4.38
2023-09-05T07:05:26.779Z,4.05
2023-09-05T07:07:54.545Z,3.90
2023-09-05T07:10:22.409Z,3.83
2023-09-05T07:12:50.176Z,6.18
2023-09-05T07:15:17.958Z,4.95
2023-09-05T07:17:46.524Z,3.97
2023-09-05T07:20:16.344Z,3.85
2023-09-05T07:22:44.290Z,4.18
2023-09-05T07:25:11.996Z,4.20
2023-09-05T07:27:41.555Z,3.78
2023-09-05T07:30:10.441Z,3.60
2023-09-05T07:32:39.711Z,4.10
2023-09-05T07:35:07.716Z,4.03
2023-09-05T07:37:37.946Z,3.80
2023-09-05T07:40:07.879Z,3.90
2023-09-05T07:42:36.152Z,3.95
2023-09-05T07:45:04.006Z,7.22
2023-09-05T07:47:31.769Z,4.40
2023-09-05T07:49:59.561Z,4.28
2023-09-05T07:52:28.041Z,3.90
2023-09-05T07:54:57.577Z,4.93
2023-09-05T07:57:25.513Z,4.43
2023-09-05T07:59:53.414Z,4.55
2023-09-05T08:02:21.546Z,3.83
2023-09-05T08:04:49.295Z,4.10
2023-09-05T08:07:17.264Z,3.80
2023-09-05T08:09:46.753Z,3.63
2023-09-05T08:12:15.976Z,4.10
2023-09-05T08:14:44.158Z,4.47
2023-09-05T08:17:11.993Z,3.97
2023-09-05T08:19:41.373Z,3.65
2023-09-05T08:22:09.930Z,3.83
2023-09-05T08:24:38.557Z,3.90
2023-09-05T08:27:07.184Z,3.55
2023-09-05T08:29:38.207Z,3.05
2023-09-05T08:32:06.498Z,3.42
2023-09-05T08:34:35.145Z,3.40
2023-09-05T08:37:03.523Z,3.42
2023-09-05T08:39:31.237Z,2.95
2023-09-05T08:41:58.938Z,3.97
2023-09-05T08:44:26.646Z,3.72
2023-09-05T08:46:56.567Z,3.10
2023-09-05T08:49:24.991Z,3.55
2023-09-05T08:51:55.530Z,3.08
2023-09-05T08:54:24.621Z,3.20
2023-09-05T08:56:52.600Z,3.42
2023-09-05T08:59:20.902Z,3.97
2023-09-05T09:01:49.404Z,3.75
2023-09-05T09:04:20.422Z,3.47
2023-09-05T09:06:55.514Z,3.72
2023-09-05T09:09:40.790Z,4.97
2023-09-05T09:12:09.639Z,3.80
2023-09-05T09:14:37.576Z,4.22
2023-09-05T09:17:08.023Z,4.40
2023-09-05T09:19:39.613Z,3.78
2023-09-05T09:22:09.314Z,3.60
2023-09-05T09:24:40.914Z,4.18
2023-09-05T09:27:10.063Z,3.88
2023-09-05T09:29:41.455Z,3.90
2023-09-05T09:32:09.222Z,3.92
2023-09-05T09:34:41.892Z,3.92
2023-09-05T09:37:10.632Z,4.03
2023-09-05T09:39:38.846Z,3.38
2023-09-05T09:42:06.879Z,3.80
2023-09-05T09:44:37.450Z,4.10
2023-09-05T09:47:05.544Z,4.30
2023-09-05T09:49:33.423Z,3.50
2023-09-05T09:52:05.246Z,3.28
2023-09-05T09:54:38.104Z,4.22
2023-09-05T09:57:06.486Z,3.88
2023-09-05T09:59:36.478Z,3.90
2023-09-05T10:02:06.268Z,3.85
2023-09-05T10:04:35.048Z,3.90
2023-09-05T10:07:08.148Z,3.55
2023-09-05T10:09:37.471Z,4.10
2023-09-05T10:12:06.955Z,3.88
2023-09-05T10:14:36.250Z,3.88
2023-09-05T10:17:04.201Z,3.88
2023-09-05T10:19:32.090Z,3.90
2023-09-05T10:22:00.799Z,3.78
2023-09-05T10:24:31.876Z,4.03
2023-09-05T10:27:00.464Z,3.63
2023-09-05T10:29:34.780Z,4.00
2023-09-05T10:32:03.762Z,3.88
2023-09-05T10:34:51.628Z,3.85
2023-09-05T10:37:21.291Z,3.92
2023-09-05T10:39:50.964Z,4.22
2023-09-05T10:42:18.872Z,4.00
2023-09-05T10:44:47.845Z,4.20
2023-09-05T10:47:26.458Z,3.70
2023-09-05T10:49:59.298Z,3.50
2023-09-05T10:52:30.937Z,3.60
2023-09-05T10:55:00.634Z,3.58
2023-09-05T10:57:35.753Z,3.78
2023-09-05T11:00:12.721Z,3.65
2023-09-05T11:02:42.253Z,3.35
2023-09-05T11:05:12.585Z,3.60
2023-09-05T11:07:44.215Z,3.67
2023-09-05T11:10:26.448Z,3.50
2023-09-05T11:12:54.402Z,3.70
2023-09-05T11:15:30.126Z,3.85
2023-09-05T11:18:01.510Z,3.80
2023-09-05T11:20:40.281Z,3.67
2023-09-05T11:23:12.117Z,3.45
2023-09-05T11:25:43.801Z,3.55
2023-09-05T11:28:11.511Z,4.00
2023-09-05T11:30:39.321Z,3.70
2023-09-05T11:33:10.629Z,3.35
2023-09-05T11:35:39.804Z,3.60
2023-09-05T11:38:07.791Z,3.50
2023-09-05T11:40:36.623Z,3.78
2023-09-05T11:43:07.316Z,3.85
2023-09-05T11:45:36.574Z,3.50
2023-09-05T11:48:05.658Z,3.63
2023-09-05T11:50:33.787Z,3.60
2023-09-05T11:53:03.952Z,3.90
2023-09-05T11:55:32.366Z,3.70
2023-09-05T11:58:01.417Z,3.85
2023-09-05T12:00:33.974Z,3.67
2023-09-05T12:03:03.269Z,4.32
2023-09-05T12:05:35.025Z,3.97
2023-09-05T12:08:06.381Z,3.95
2023-09-05T12:10:40.680Z,4.35
2023-09-05T12:13:08.961Z,4.53
2023-09-05T12:15:38.857Z,4.13
2023-09-05T12:18:07.668Z,4.22
2023-09-05T12:20:37.692Z,4.00
2023-09-05T12:23:06.868Z,4.25
2023-09-05T12:25:43.062Z,4.35
2023-09-05T12:28:25.639Z,4.28
2023-09-05T12:31:07.156Z,3.85
2023-09-05T12:33:35.196Z,4.78
2023-09-05T12:36:03.816Z,4.30
2023-09-05T12:38:32.561Z,6.45
2023-09-05T12:41:01.213Z,4.40
2023-09-05T12:43:29.208Z,4.40
2023-09-05T12:45:58.558Z,4.28
2023-09-05T12:48:27.161Z,4.32
2023-09-05T12:50:56.591Z,4.10
2023-09-05T12:53:25.164Z,4.18
2023-09-05T12:55:53.268Z,4.25
2023-09-05T12:58:21.171Z,4.30
2023-09-05T13:00:49.117Z,4.47
2023-09-05T13:03:19.063Z,4.28
2023-09-05T13:05:47.610Z,4.47
2023-09-05T13:08:15.522Z,4.00
2023-09-05T13:10:43.312Z,3.95
2023-09-05T13:13:11.242Z,3.90
2023-09-05T13:15:44.441Z,3.40
2023-09-05T13:18:13.869Z,3.80
2023-09-05T13:20:44.679Z,3.42
2023-09-05T13:23:13.433Z,4.03
2023-09-05T13:25:42.411Z,3.90
2023-09-05T13:28:15.608Z,3.45
2023-09-05T13:30:43.718Z,3.72
2023-09-05T13:33:11.845Z,3.40
2023-09-05T13:35:39.768Z,4.07
2023-09-05T13:38:09.237Z,3.63
2023-09-05T13:40:37.950Z,3.63
2023-09-05T13:43:06.372Z,3.67
2023-09-05T13:45:34.266Z,4.13
2023-09-05T13:48:02.987Z,2.92
2023-09-05T13:50:31.101Z,3.65
2023-09-05T13:52:58.774Z,2.97
2023-09-05T13:55:29.094Z,3.40
2023-09-05T13:57:57.324Z,3.15
2023-09-05T14:00:25.085Z,3.75
2023-09-05T14:02:53.668Z,4.75
2023-09-05T14:05:22.022Z,3.75
2023-09-05T14:07:49.931Z,3.30
2023-09-05T14:10:19.366Z,3.63
2023-09-05T14:12:50.086Z,3.85
2023-09-05T14:15:18.215Z,3.90
2023-09-05T14:17:47.265Z,3.90
2023-09-05T14:20:16.073Z,3.45
2023-09-05T14:22:44.029Z,3.35
2023-09-05T14:25:11.727Z,3.38
2023-09-05T14:27:39.552Z,3.72
2023-09-05T14:30:10.898Z,3.42
2023-09-05T14:32:38.938Z,3.50
2023-09-05T14:35:06.990Z,3.00
2023-09-05T14:37:35.072Z,3.38
2023-09-05T14:40:03.530Z,3.40
2023-09-05T14:42:35.915Z,3.30
2023-09-05T14:45:06.625Z,3.30
2023-09-05T14:47:36.427Z,3.53
2023-09-05T14:50:05.441Z,4.00
2023-09-05T14:52:35.816Z,3.45
2023-09-05T14:55:03.683Z,3.20
2023-09-05T14:57:31.669Z,4.53
2023-09-05T14:59:59.529Z,3.90
2023-09-05T15:02:27.491Z,3.42
2023-09-05T15:04:56.628Z,3.92
2023-09-05T15:07:24.391Z,3.05
2023-09-05T15:09:53.106Z,3.33
2023-09-05T15:12:22.358Z,3.20
2023-09-05T15:14:51.417Z,4.05
2023-09-05T15:17:19.140Z,3.70
2023-09-05T15:19:47.193Z,3.10
2023-09-05T15:22:17.100Z,3.83
2023-09-05T15:24:45.476Z,3.53
2023-09-05T15:27:14.647Z,3.20
2023-09-05T15:29:42.842Z,3.50
2023-09-05T15:32:10.972Z,3.42
2023-09-05T15:34:39.078Z,3.40
2023-09-05T15:37:06.909Z,2.95
2023-09-05T15:39:39.231Z,3.22
2023-09-05T15:42:09.762Z,3.33
2023-09-05T15:44:38.853Z,3.28
2023-09-05T15:47:07.127Z,3.00
2023-09-05T15:49:35.373Z,3.47
2023-09-05T15:52:04.416Z,3.00
2023-09-05T15:54:32.397Z,4.25
2023-09-05T15:57:02.076Z,3.22
2023-09-05T15:59:30.214Z,3.53
2023-09-05T16:01:58.109Z,2.92
2023-09-05T16:04:27.176Z,3.30
2023-09-05T16:06:55.159Z,3.15
2023-09-05T16:09:23.344Z,3.17
2023-09-05T16:11:51.257Z,6.18
2023-09-05T16:14:21.426Z,3.33
2023-09-05T16:16:49.259Z,2.88
2023-09-05T16:19:17.818Z,3.15
2023-09-05T16:21:46.849Z,3.00
2023-09-05T16:24:14.741Z,3.20
2023-09-05T16:26:44.568Z,3.30
2023-09-05T16:29:12.705Z,3.35
2023-09-05T16:31:42.867Z,2.97
2023-09-05T16:34:11.490Z,2.95
2023-09-05T16:36:39.713Z,2.95
2023-09-05T16:39:12.060Z,2.78
2023-09-05T16:41:40.468Z,3.45
2023-09-05T16:44:08.854Z,3.00
2023-09-05T16:46:37.209Z,2.60
2023-09-05T16:49:06.421Z,2.67
2023-09-05T16:51:36.960Z,2.60
2023-09-05T16:54:05.162Z,3.78
2023-09-05T16:56:33.070Z,3.17
2023-09-05T16:59:02.044Z,2.72
2023-09-05T17:01:31.240Z,3.20
2023-09-05T17:03:59.791Z,4.38
2023-09-05T17:06:30.878Z,4.20
2023-09-05T17:08:59.482Z,3.15
2023-09-05T17:11:27.284Z,3.25
2023-09-05T17:13:55.275Z,4.15
2023-09-05T17:16:23.496Z,2.92
2023-09-05T17:18:52.662Z,3.00
2023-09-05T17:21:20.995Z,2.92
2023-09-05T17:23:51.451Z,2.88
2023-09-05T17:26:19.257Z,2.90
2023-09-05T17:28:49.875Z,2.63
2023-09-05T17:31:19.886Z,3.25
2023-09-05T17:33:48.323Z,2.60
2023-09-05T17:36:16.351Z,2.60
2023-09-05T17:38:44.199Z,2.65
2023-09-05T17:41:14.526Z,2.60
2023-09-05T17:43:42.291Z,3.22
2023-09-05T17:46:10.129Z,2.70
2023-09-05T17:48:38.547Z,2.92
2023-09-05T17:51:06.976Z,2.75
2023-09-05T17:53:36.374Z,4.45
2023-09-05T17:56:05.117Z,2.90
2023-09-05T17:58:34.596Z,3.25
2023-09-05T18:01:11.542Z,3.35
2023-09-05T18:03:39.906Z,3.67
2023-09-05T18:06:08.512Z,3.65
2023-09-05T18:08:36.730Z,4.10
2023-09-05T18:11:09.402Z,4.28
2023-09-05T18:13:41.283Z,4.15
2023-09-05T18:16:14.978Z,4.43
2023-09-05T18:18:47.490Z,3.90
2023-09-05T18:21:15.652Z,4.13
2023-09-05T18:23:43.563Z,4.32
2023-09-05T18:26:12.706Z,4.07
2023-09-05T18:28:42.569Z,4.15
2023-09-05T18:31:11.891Z,5.72
2023-09-05T18:33:40.634Z,4.60
2023-09-05T18:36:10.193Z,4.70
2023-09-05T18:38:41.587Z,4.72
2023-09-05T18:41:12.548Z,3.92
2023-09-05T18:43:43.697Z,5.00
2023-09-05T18:46:12.725Z,4.93
2023-09-05T18:48:42.124Z,4.95
2023-09-05T18:51:10.976Z,4.40
2023-09-05T18:53:39.819Z,4.30
2023-09-05T18:56:08.508Z,4.40
2023-09-05T18:58:36.797Z,5.20
2023-09-05T19:01:07.393Z,4.80
2023-09-05T19:03:36.906Z,4.30
2023-09-05T19:06:05.260Z,5.85
2023-09-05T19:08:33.141Z,3.83
2023-09-05T19:11:04.074Z,3.65
2023-09-05T19:13:32.573Z,3.30
2023-09-05T19:16:05.469Z,3.28
2023-09-05T19:18:36.001Z,6.03
2023-09-05T19:21:05.520Z,3.80
2023-09-05T19:23:34.291Z,3.58
2023-09-05T19:26:06.202Z,4.97
2023-09-05T19:28:34.687Z,7.32
2023-09-05T19:31:04.408Z,8.13
2023-09-05T19:33:32.594Z,10.57
2023-09-05T19:36:02.569Z,7.50
2023-09-05T19:38:31.206Z,7.35
2023-09-05T19:40:59.136Z,5.03
2023-09-05T19:43:27.191Z,4.80
2023-09-05T19:45:55.703Z,4.57
2023-09-05T19:48:23.845Z,5.25
2023-09-05T19:50:52.114Z,5.50
2023-09-05T19:53:23.440Z,4.97
2023-09-05T19:55:53.187Z,5.60
2023-09-05T19:58:21.623Z,7.20
2023-09-05T20:00:50.050Z,5.18
2023-09-05T20:03:19.251Z,7.03
2023-09-05T20:05:50.209Z,5.20
2023-09-05T20:08:18.719Z,5.35
2023-09-05T20:10:48.607Z,6.47
2023-09-05T20:13:16.706Z,6.75
2023-09-05T20:15:46.893Z,6.72
2023-09-05T20:18:15.573Z,18.08
2023-09-05T20:20:49.637Z,14.15
2023-09-05T20:23:19.650Z,10.82
2023-09-05T20:25:52.132Z,10.82
2023-09-05T20:28:20.509Z,9.80
2023-09-05T20:30:55.271Z,6.13
2023-09-05T20:33:24.285Z,5.10
2023-09-05T20:35:52.635Z,5.30
2023-09-05T20:38:20.863Z,5.05
2023-09-05T20:40:51.065Z,5.43
2023-09-05T20:43:18.891Z,5.57
2023-09-05T20:45:47.109Z,5.47
2023-09-05T20:48:15.321Z,5.63
2023-09-05T20:50:43.019Z,5.55
2023-09-05T20:53:11.715Z,5.55
2023-09-05T20:55:40.448Z,5.20
2023-09-05T20:58:12.001Z,5.53
2023-09-05T21:00:39.781Z,5.60
2023-09-05T21:03:07.952Z,5.07
2023-09-05T21:05:36.473Z,4.93
2023-09-05T21:08:04.867Z,5.68
2023-09-05T21:10:32.899Z,5.65
2023-09-05T21:13:00.969Z,5.28
2023-09-05T21:15:31.064Z,5.60
2023-09-05T21:17:59.209Z,5.35
2023-09-05T21:20:27.423Z,5.00
2023-09-05T21:22:55.605Z,6.10
2023-09-05T21:25:23.463Z,6.07
2023-09-05T21:27:51.300Z,5.10
2023-09-05T21:30:19.610Z,5.72
2023-09-05T21:32:49.987Z,5.22
2023-09-05T21:35:17.861Z,5.60
2023-09-05T21:37:45.690Z,5.85
2023-09-05T21:40:13.710Z,6.22
2023-09-05T21:42:42.848Z,6.43
2023-09-05T21:45:11.119Z,6.03
2023-09-05T21:47:39.827Z,6.28
2023-09-05T21:50:10.685Z,7.10
2023-09-05T21:52:38.986Z,6.75
2023-09-05T21:55:07.664Z,7.03
2023-09-05T21:57:36.287Z,6.65
2023-09-05T22:00:06.585Z,6.88
2023-09-05T22:02:34.828Z,6.35
2023-09-05T22:05:04.147Z,6.65
2023-09-05T22:07:36.952Z,6.95
2023-09-05T22:10:05.741Z,6.63
2023-09-05T22:12:34.007Z,6.63
2023-09-05T22:15:02.440Z,7.35
2023-09-05T22:17:30.338Z,7.03
2023-09-05T22:19:58.453Z,6.82
2023-09-05T22:22:26.696Z,7.05
2023-09-05T22:25:11.863Z,6.70
2023-09-05T22:27:41.855Z,8.82
2023-09-05T22:30:17.129Z,6.95
2023-09-05T22:32:45.588Z,7.15
2023-09-05T22:35:15.464Z,6.63
2023-09-05T22:37:43.755Z,7.05
2023-09-05T22:40:17.494Z,8.10
2023-09-05T22:42:48.861Z,6.85
2023-09-05T22:45:17.121Z,7.28
2023-09-05T22:47:47.124Z,7.43
2023-09-05T22:50:15.305Z,8.60
2023-09-05T22:52:43.356Z,8.95
2023-09-05T22:55:11.813Z,8.38
2023-09-05T22:57:40.057Z,7.35
2023-09-05T23:00:14.806Z,7.40
2023-09-05T23:02:44.536Z,7.65
2023-09-05T23:05:14.165Z,7.38
2023-09-05T23:07:42.469Z,7.30
2023-09-05T23:10:10.702Z,7.63
2023-09-05T23:12:39.097Z,7.50
2023-09-05T23:15:08.401Z,7.93
2023-09-05T23:17:37.875Z,8.32
2023-09-05T23:20:12.200Z,8.80
2023-09-05T23:22:40.679Z,7.55
2023-09-05T23:25:09.257Z,6.88
2023-09-05T23:27:37.212Z,7.95
2023-09-05T23:30:05.515Z,8.30
2023-09-05T23:32:33.325Z,9.05
2023-09-05T23:35:07.390Z,8.48
2023-09-05T23:37:35.311Z,8.63
2023-09-05T23:40:07.666Z,9.00
2023-09-05T23:42:37.713Z,8.77
2023-09-05T23:45:07.214Z,9.32
2023-09-05T23:47:35.206Z,8.48
2023-09-05T23:50:05.091Z,8.90
2023-09-05T23:52:33.658Z,9.13
2023-09-05T23:55:03.208Z,9.30
2023-09-05T23:57:31.112Z,8.38
2023-09-05T23:59:59.443Z,8.77
